Time;durP1;ratioP1;P1;durP2;ratioP2;P2;SDS_P1;SDS_P2;PMS_P1;PMS_P2;Temp;Humidity;BMP_temperature;BMP_pressure;BME280_temperature;BME280_humidity;BME280_pressure;Samples;Min_cycle;Max_cycle;Signal;HPM_P1;HPM_P2
2020/12/31 00:00:08;;;;;;;7.60;4.70;;;;;;;1.87;100.00;95454.91;5004899;28;20230;-72
2020/12/31 00:02:34;;;;;;;10.13;5.63;;;;;;;1.79;100.00;95447.03;5003657;28;20246;-71
2020/12/31 00:05:00;;;;;;;8.27;4.93;;;;;;;1.80;100.00;95447.88;5003875;28;20608;-72
2020/12/31 00:07:27;;;;;;;8.07;4.73;;;;;;;1.74;100.00;95449.25;5004232;28;20219;-72
2020/12/31 00:09:53;;;;;;;13.50;5.53;;;;;;;1.69;100.00;95443.66;5004092;28;20203;-72
2020/12/31 00:12:19;;;;;;;20.80;8.77;;;;;;;1.66;100.00;95450.94;5004306;28;20272;-72
2020/12/31 00:14:45;;;;;;;12.73;5.50;;;;;;;1.61;100.00;95446.16;5004319;28;20210;-72
2020/12/31 00:17:11;;;;;;;12.07;5.10;;;;;;;1.48;100.00;95450.84;5003453;28;20275;-72
2020/12/31 00:19:37;;;;;;;11.50;5.83;;;;;;;1.58;100.00;95453.41;5003659;28;20365;-72
2020/12/31 00:22:03;;;;;;;11.37;5.37;;;;;;;1.45;100.00;95452.91;5004458;28;20226;-71
2020/12/31 00:24:29;;;;;;;13.10;5.67;;;;;;;1.51;100.00;95455.75;5003441;28;20268;-72
2020/12/31 00:26:55;;;;;;;12.27;5.60;;;;;;;1.41;100.00;95449.78;5004158;28;20202;-72
2020/12/31 00:29:21;;;;;;;11.53;4.83;;;;;;;1.39;100.00;95462.09;5003938;28;20276;-72
2020/12/31 00:31:47;;;;;;;15.90;5.30;;;;;;;1.43;100.00;95460.84;5002984;28;20991;-72
2020/12/31 00:34:13;;;;;;;10.07;5.00;;;;;;;1.42;100.00;95454.00;5003983;28;20221;-72
2020/12/31 00:36:39;;;;;;;8.87;4.93;;;;;;;1.43;100.00;95463.44;5003329;28;20286;-72
2020/12/31 00:39:05;;;;;;;9.87;4.90;;;;;;;1.35;100.00;95455.53;5003224;28;20212;-72
2020/12/31 00:41:32;;;;;;;12.87;6.27;;;;;;;1.38;100.00;95457.03;5002847;28;20400;-72
2020/12/31 00:43:58;;;;;;;17.27;7.10;;;;;;;1.41;100.00;95454.16;5001718;28;20222;-72
2020/12/31 00:46:24;;;;;;;10.83;5.20;;;;;;;1.40;100.00;95448.16;5002192;28;20577;-72
2020/12/31 00:48:50;;;;;;;16.57;5.30;;;;;;;1.29;100.00;95448.31;5001651;28;20565;-72
2020/12/31 00:51:15;;;;;;;8.73;5.03;;;;;;;1.24;100.00;95455.69;5002777;28;20259;-72
2020/12/31 00:53:41;;;;;;;8.20;4.77;;;;;;;1.20;100.00;95449.16;5002234;28;20229;-72
2020/12/31 00:56:07;;;;;;;15.70;7.70;;;;;;;1.08;100.00;95451.22;5001921;28;20202;-72
2020/12/31 00:58:34;;;;;;;8.33;5.00;;;;;;;1.07;100.00;95452.19;5002622;28;20217;-72
2020/12/31 01:01:00;;;;;;;7.67;5.03;;;;;;;0.95;100.00;95448.91;5002433;28;20230;-72
2020/12/31 01:03:26;;;;;;;7.17;4.80;;;;;;;1.00;100.00;95451.09;5002234;28;21167;-72
2020/12/31 01:05:53;;;;;;;7.80;4.50;;;;;;;0.79;100.00;95451.25;5002600;28;20199;-72
2020/12/31 01:08:19;;;;;;;8.60;4.50;;;;;;;0.85;100.00;95452.47;5001960;28;21213;-71
2020/12/31 01:10:45;;;;;;;8.87;4.37;;;;;;;0.88;100.00;95452.19;5002945;28;20202;-72
2020/12/31 01:13:11;;;;;;;6.53;4.17;;;;;;;0.95;100.00;95448.91;5002938;28;20222;-72
2020/12/31 01:15:38;;;;;;;8.33;3.83;;;;;;;0.90;100.00;95450.28;5002632;28;20209;-72
2020/12/31 01:18:03;;;;;;;9.70;4.30;;;;;;;0.85;100.00;95449.88;5003395;28;20210;-72
2020/12/31 01:20:29;;;;;;;7.07;4.30;;;;;;;0.93;100.00;95444.81;5003598;28;20240;-72
2020/12/31 01:22:55;;;;;;;7.27;4.07;;;;;;;0.84;100.00;95437.88;5002900;28;21109;-72
2020/12/31 01:25:21;;;;;;;6.60;4.23;;;;;;;0.81;100.00;95432.97;5002779;28;20209;-71
2020/12/31 01:27:47;;;;;;;7.87;4.20;;;;;;;0.82;100.00;95442.41;5004208;28;20729;-72
2020/12/31 01:30:13;;;;;;;6.37;4.30;;;;;;;0.76;100.00;95432.56;5003914;28;20269;-72
2020/12/31 01:32:40;;;;;;;6.57;4.37;;;;;;;0.73;100.00;95443.22;5004384;28;20233;-71
2020/12/31 01:35:06;;;;;;;6.53;4.00;;;;;;;0.74;100.00;95439.69;5004407;28;20202;-72
2020/12/31 01:37:32;;;;;;;7.13;4.23;;;;;;;0.68;100.00;95445.41;5004809;28;20259;-72
2020/12/31 01:39:58;;;;;;;6.23;4.00;;;;;;;0.66;100.00;95450.72;5004669;28;20210;-72
2020/12/31 01:42:24;;;;;;;6.27;3.87;;;;;;;0.61;100.00;95446.88;5004891;28;20286;-72
2020/12/31 01:44:50;;;;;;;6.70;3.90;;;;;;;0.58;100.00;95447.97;5007650;28;20216;-73
2020/12/31 01:47:16;;;;;;;6.37;3.77;;;;;;;0.62;100.00;95448.53;5009084;28;20217;-72
2020/12/31 01:49:44;;;;;;;9.03;4.37;;;;;;;0.63;100.00;95453.56;5008435;28;20206;-72
2020/12/31 01:52:14;;;;;;;8.80;4.17;;;;;;;0.64;100.00;95454.41;5008812;28;20202;-72
2020/12/31 01:54:40;;;;;;;7.77;3.77;;;;;;;0.65;100.00;95462.03;5008245;28;20208;-72
2020/12/31 01:57:08;;;;;;;7.07;3.90;;;;;;;0.64;100.00;95454.41;5007628;28;20206;-72
2020/12/31 01:59:34;;;;;;;5.03;3.43;;;;;;;0.75;100.00;95456.84;5008474;28;20214;-72
2020/12/31 02:02:00;;;;;;;6.17;3.67;;;;;;;0.78;100.00;95462.59;5007975;28;20732;-72
2020/12/31 02:04:26;;;;;;;6.20;4.00;;;;;;;0.87;100.00;95451.38;5008746;28;20561;-72
2020/12/31 02:06:54;;;;;;;8.23;4.33;;;;;;;0.95;100.00;95453.31;5007188;28;20260;-72
2020/12/31 02:09:20;;;;;;;9.83;4.27;;;;;;;0.94;100.00;95454.25;5008283;28;20202;-72
2020/12/31 02:11:46;;;;;;;6.70;4.00;;;;;;;0.88;100.00;95457.38;5008137;28;20221;-72
2020/12/31 02:14:12;;;;;;;6.53;4.10;;;;;;;0.82;100.00;95448.38;5007756;28;20225;-72
2020/12/31 02:16:40;;;;;;;6.50;4.00;;;;;;;0.95;100.00;95446.31;5008071;28;20210;-73
2020/12/31 02:19:07;;;;;;;6.80;3.83;;;;;;;1.00;100.00;95445.94;5008188;28;20209;-72
2020/12/31 02:21:35;;;;;;;6.57;3.80;;;;;;;1.01;100.00;95444.97;5007790;28;20229;-72
2020/12/31 02:24:03;;;;;;;5.57;3.83;;;;;;;1.06;100.00;95446.19;5008248;28;20610;-72
2020/12/31 02:26:31;;;;;;;5.30;3.70;;;;;;;1.05;100.00;95443.72;5007970;28;20217;-72
2020/12/31 02:28:58;;;;;;;6.20;3.40;;;;;;;1.06;100.00;95440.16;5007850;28;20198;-72
2020/12/31 02:31:25;;;;;;;6.30;4.17;;;;;;;1.05;100.00;95433.34;5007897;28;20208;-72
2020/12/31 02:33:53;;;;;;;6.03;3.67;;;;;;;0.97;100.00;95441.00;5007824;28;20228;-72
2020/12/31 02:36:21;;;;;;;5.87;3.70;;;;;;;0.97;100.00;95433.22;5007621;28;20597;-72
2020/12/31 02:38:47;;;;;;;6.87;4.23;;;;;;;1.02;100.00;95433.63;5005881;28;20202;-72
2020/12/31 02:41:14;;;;;;;5.73;3.60;;;;;;;0.97;100.00;95435.81;5005753;28;20233;-72
2020/12/31 02:43:41;;;;;;;6.37;3.70;;;;;;;1.04;100.00;95434.31;5005072;28;20225;-72
2020/12/31 02:46:08;;;;;;;5.70;3.50;;;;;;;0.95;100.00;95432.56;5005130;28;20213;-72
2020/12/31 02:48:34;;;;;;;5.23;3.00;;;;;;;0.97;100.00;95428.03;5005982;28;20210;-72
2020/12/31 02:51:01;;;;;;;4.40;3.40;;;;;;;1.01;100.00;95429.41;5006922;28;20658;-72
2020/12/31 02:53:27;;;;;;;5.60;3.20;;;;;;;1.04;100.00;95429.94;5005661;28;20265;-72
2020/12/31 02:55:53;;;;;;;5.53;3.50;;;;;;;1.07;100.00;95421.88;5004392;28;20209;-72
2020/12/31 02:58:20;;;;;;;5.07;3.27;;;;;;;1.04;100.00;95429.13;5005258;28;20211;-72
2020/12/31 03:00:46;;;;;;;4.80;3.13;;;;;;;0.94;100.00;95423.97;5004880;28;20206;-73
2020/12/31 03:03:12;;;;;;;6.37;3.80;;;;;;;0.87;100.00;95424.66;5005908;28;20232;-72
2020/12/31 03:05:38;;;;;;;4.23;3.23;;;;;;;0.97;100.00;95412.47;5004740;28;20722;-72
2020/12/31 03:08:04;;;;;;;5.93;3.53;;;;;;;0.85;100.00;95413.59;5006206;28;20217;-72
2020/12/31 03:10:30;;;;;;;5.47;3.40;;;;;;;0.83;100.00;95415.53;5005138;28;20696;-72
2020/12/31 03:12:56;;;;;;;4.73;3.10;;;;;;;0.77;100.00;95413.47;5004363;28;20226;-72
2020/12/31 03:15:24;;;;;;;4.90;3.20;;;;;;;0.69;100.00;95411.56;5006210;28;20210;-72
2020/12/31 03:17:51;;;;;;;6.73;3.60;;;;;;;0.59;100.00;95415.94;5005122;28;20222;-72
2020/12/31 03:20:17;;;;;;;5.33;3.43;;;;;;;0.58;100.00;95403.91;5005708;28;20298;-72
2020/12/31 03:22:43;;;;;;;6.67;3.77;;;;;;;0.57;100.00;95396.28;5004249;28;20716;-72
2020/12/31 03:25:09;;;;;;;6.27;3.90;;;;;;;0.49;100.00;95398.75;5005111;28;20316;-73
2020/12/31 03:27:35;;;;;;;5.57;3.53;;;;;;;0.46;100.00;95393.84;5005756;28;20253;-73
2020/12/31 03:30:02;;;;;;;6.60;3.90;;;;;;;0.46;100.00;95387.84;5005601;28;20225;-72
2020/12/31 03:32:28;;;;;;;6.57;3.87;;;;;;;0.46;100.00;95385.25;5005826;28;20640;-73
2020/12/31 03:34:54;;;;;;;7.13;3.87;;;;;;;0.34;100.00;95374.19;5005145;28;20203;-73
2020/12/31 03:37:20;;;;;;;5.57;3.50;;;;;;;0.42;100.00;95371.75;5005139;28;20210;-72
2020/12/31 03:39:46;;;;;;;6.57;3.90;;;;;;;0.44;100.00;95362.06;5005190;28;20202;-73
2020/12/31 03:42:12;;;;;;;6.77;3.90;;;;;;;0.36;100.00;95361.94;5004367;28;20233;-73
2020/12/31 03:44:38;;;;;;;6.23;3.73;;;;;;;0.37;100.00;95363.59;5003908;28;20671;-72
2020/12/31 03:47:04;;;;;;;7.07;3.87;;;;;;;0.36;100.00;95361.13;5004010;28;20210;-73
2020/12/31 03:49:30;;;;;;;6.40;4.17;;;;;;;0.29;100.00;95357.44;5005600;28;21066;-72
2020/12/31 03:51:56;;;;;;;6.70;3.93;;;;;;;0.26;100.00;95348.16;5004442;28;20224;-72
2020/12/31 03:54:22;;;;;;;6.60;3.80;;;;;;;0.11;100.00;95354.69;5004445;28;20681;-72
2020/12/31 03:56:48;;;;;;;7.33;3.83;;;;;;;0.05;100.00;95357.03;5002810;28;20202;-72
2020/12/31 03:59:14;;;;;;;7.10;3.80;;;;;;;0.22;100.00;95358.94;5003434;28;20209;-72
2020/12/31 04:01:40;;;;;;;5.87;3.70;;;;;;;0.22;100.00;95359.75;5002998;28;20229;-72
2020/12/31 04:04:06;;;;;;;5.93;3.60;;;;;;;0.06;100.00;95350.88;5004084;28;20280;-72
2020/12/31 04:06:32;;;;;;;5.47;3.53;;;;;;;0.10;100.00;95349.66;5001705;28;20211;-72
2020/12/31 04:08:58;;;;;;;6.90;3.83;;;;;;;0.10;100.00;95349.66;5002552;28;20214;-72
2020/12/31 04:11:24;;;;;;;5.70;3.53;;;;;;;0.10;100.00;95347.91;5002127;28;20644;-72
2020/12/31 04:13:50;;;;;;;5.40;3.47;;;;;;;-0.02;100.00;95351.56;5003242;28;20628;-72
2020/12/31 04:16:16;;;;;;;6.77;3.53;;;;;;;0.00;100.00;95349.69;5002566;28;20723;-72
2020/12/31 04:18:42;;;;;;;5.20;3.50;;;;;;;0.07;100.00;95345.56;5002042;28;20547;-73
2020/12/31 04:21:08;;;;;;;5.23;3.53;;;;;;;-0.04;100.00;95342.28;5002639;28;20237;-72
2020/12/31 04:23:35;;;;;;;7.00;3.87;;;;;;;-0.01;100.00;95340.25;5000802;28;20719;-72
2020/12/31 04:26:01;;;;;;;7.70;3.83;;;;;;;0.01;100.00;95343.56;4999393;28;20230;-72
2020/12/31 04:28:27;;;;;;;5.57;3.57;;;;;;;0.12;100.00;95337.41;5000280;28;20705;-72
2020/12/31 04:30:53;;;;;;;8.20;4.47;;;;;;;0.05;100.00;95339.72;5000478;28;20750;-72
2020/12/31 04:33:19;;;;;;;8.27;3.83;;;;;;;-0.03;100.00;95331.00;5000391;28;20328;-72
2020/12/31 04:35:45;;;;;;;4.80;3.67;;;;;;;-0.02;100.00;95339.59;4999225;28;20198;-72
2020/12/31 04:38:11;;;;;;;7.27;4.17;;;;;;;-0.15;100.00;95328.66;4999751;28;20201;-72
2020/12/31 04:40:42;;;;;;;7.13;4.10;;;;;;;-0.05;100.00;95329.50;4999044;28;20195;-72
2020/12/31 04:43:09;;;;;;;6.83;3.87;;;;;;;-0.13;100.00;95332.75;4998922;28;20236;-72
2020/12/31 04:45:35;;;;;;;6.43;4.50;;;;;;;-0.11;100.00;95336.03;4998398;28;20236;-73
2020/12/31 04:48:08;;;;;;;6.23;3.87;;;;;;;-0.13;100.00;95337.94;4998885;28;20584;-72
2020/12/31 04:50:38;;;;;;;7.23;4.10;;;;;;;-0.20;100.00;95338.63;4999182;28;20292;-73
2020/12/31 04:53:06;;;;;;;7.17;4.17;;;;;;;-0.37;100.00;95337.50;4998820;28;20493;-72
2020/12/31 04:55:33;;;;;;;8.73;5.10;;;;;;;-0.35;100.00;95333.00;4998269;28;20206;-72
2020/12/31 04:58:00;;;;;;;7.60;4.23;;;;;;;-0.35;100.00;95337.38;4998582;28;20356;-73
2020/12/31 05:00:26;;;;;;;7.00;4.27;;;;;;;-0.34;100.00;95333.84;4998587;28;20647;-72
2020/12/31 05:02:53;;;;;;;7.03;4.43;;;;;;;-0.38;100.00;95341.03;4998311;28;20720;-72
2020/12/31 05:05:20;;;;;;;7.67;4.60;;;;;;;-0.38;100.00;95335.88;4997552;28;20209;-72
2020/12/31 05:07:48;;;;;;;7.70;4.77;;;;;;;-0.40;100.00;95327.41;4998124;28;20623;-72
2020/12/31 05:10:14;;;;;;;12.27;5.00;;;;;;;-0.35;100.00;95337.38;4998586;28;20205;-72
2020/12/31 05:12:40;;;;;;;7.43;4.43;;;;;;;-0.35;100.00;95342.53;4998745;28;20295;-72
2020/12/31 05:15:07;;;;;;;9.30;5.27;;;;;;;-0.43;100.00;95342.41;4998565;28;20623;-72
2020/12/31 05:17:33;;;;;;;7.13;4.60;;;;;;;-0.39;100.00;95344.56;4999631;28;20295;-72
2020/12/31 05:19:59;;;;;;;8.43;4.93;;;;;;;-0.39;100.00;95336.00;5002424;28;20738;-72
2020/12/31 05:22:25;;;;;;;10.60;5.63;;;;;;;-0.44;100.00;95343.34;5002974;28;20590;-72
2020/12/31 05:24:52;;;;;;;7.43;4.33;;;;;;;-0.39;100.00;95336.81;5002357;28;20680;-72
2020/12/31 05:27:22;;;;;;;8.70;4.50;;;;;;;-0.38;100.00;95338.44;5001106;28;20212;-72
2020/12/31 05:30:00;;;;;;;8.10;4.93;;;;;;;-0.50;100.00;95339.53;5001943;28;20232;-73
2020/12/31 05:32:28;;;;;;;9.03;4.40;;;;;;;-0.53;100.00;95341.56;5002516;28;20240;-72
2020/12/31 05:34:56;;;;;;;11.23;5.13;;;;;;;-0.43;100.00;95339.81;5002123;28;20202;-71
2020/12/31 05:37:23;;;;;;;11.27;5.40;;;;;;;-0.52;100.00;95336.25;5001600;28;20256;-72
2020/12/31 05:40:00;;;;;;;13.90;7.00;;;;;;;-0.67;100.00;95341.91;5002898;28;20211;-72
2020/12/31 05:42:27;;;;;;;33.93;12.83;;;;;;;-0.66;100.00;95338.38;5002146;28;20244;-72
2020/12/31 05:45:00;;;;;;;17.57;7.73;;;;;;;-0.91;100.00;95336.25;5001826;28;20245;-72
2020/12/31 05:47:27;;;;;;;13.90;6.67;;;;;;;-1.22;100.00;95333.81;5002602;28;20206;-72
2020/12/31 05:49:53;;;;;;;13.30;6.70;;;;;;;-1.23;100.00;95347.69;5001926;28;20213;-72
2020/12/31 05:52:32;;;;;;;12.93;6.00;;;;;;;-1.16;100.00;95349.63;5002157;28;20221;-72
2020/12/31 05:55:01;;;;;;;11.00;5.70;;;;;;;-1.13;100.00;95341.59;5001289;28;20304;-72
2020/12/31 05:57:41;;;;;;;12.17;7.07;;;;;;;-1.23;100.00;95344.25;5001341;28;20206;-72
2020/12/31 06:00:07;;;;;;;11.30;7.07;;;;;;;-1.04;100.00;95332.25;5001411;28;20198;-72
2020/12/31 06:02:37;;;;;;;12.73;6.70;;;;;;;-1.02;100.00;95345.84;5001453;28;20226;-72
2020/12/31 06:05:10;;;;;;;15.37;8.60;;;;;;;-0.87;100.00;95340.19;5000152;28;20209;-72
2020/12/31 06:07:45;;;;;;;28.73;11.93;;;;;;;-0.78;100.00;95338.63;5000335;28;21171;-72
2020/12/31 06:10:14;;;;;;;42.60;15.30;;;;;;;-0.71;100.00;95344.88;5000840;28;20204;-72
2020/12/31 06:12:56;;;;;;;39.60;14.63;;;;;;;-0.67;100.00;95352.25;5001176;28;20627;-72
2020/12/31 06:15:25;;;;;;;43.20;15.90;;;;;;;-0.63;100.00;95351.06;4999604;28;20478;-72
2020/12/31 06:17:52;;;;;;;46.27;15.27;;;;;;;-0.69;100.00;95359.31;5000754;28;20635;-72
2020/12/31 06:20:19;;;;;;;83.63;25.50;;;;;;;-0.78;100.00;95354.94;5000944;28;20272;-72
2020/12/31 06:22:59;;;;;;;68.50;24.33;;;;;;;-0.84;100.00;95359.81;5000625;28;20223;-72
2020/12/31 06:25:33;;;;;;;57.90;20.40;;;;;;;-0.78;100.00;95354.94;4999779;28;20213;-72
2020/12/31 06:28:04;;;;;;;89.77;27.10;;;;;;;-0.68;100.00;95355.78;5000690;28;20217;-72
2020/12/31 06:30:32;;;;;;;145.97;41.53;;;;;;;-0.79;100.00;95358.50;4999846;28;20213;-72
2020/12/31 06:33:03;;;;;;;72.70;25.87;;;;;;;-0.79;100.00;95353.31;4999886;28;20214;-72
2020/12/31 06:35:30;;;;;;;47.83;17.23;;;;;;;-0.67;100.00;95354.84;5001815;28;20218;-71
2020/12/31 06:37:58;;;;;;;22.77;10.80;;;;;;;-0.89;100.00;95347.28;5003074;28;20211;-72
2020/12/31 06:40:25;;;;;;;27.57;10.57;;;;;;;-0.86;100.00;95348.81;5002432;28;20208;-72
2020/12/31 06:43:02;;;;;;;26.10;11.10;;;;;;;-0.84;100.00;95347.72;5002471;28;20300;-73
2020/12/31 06:45:41;;;;;;;23.40;10.30;;;;;;;-0.90;100.00;95343.06;5003062;28;20566;-72
2020/12/31 06:48:36;;;;;;;19.13;9.00;;;;;;;-0.99;100.00;95343.84;5002788;28;20704;-72
2020/12/31 06:51:05;;;;;;;15.63;7.97;;;;;;;-0.94;100.00;95344.28;5000395;28;20203;-72
2020/12/31 06:53:33;;;;;;;17.73;7.67;;;;;;;-0.90;100.00;95345.66;5001696;28;20230;-72
2020/12/31 06:56:02;;;;;;;17.20;7.60;;;;;;;-0.90;100.00;95343.06;5000059;28;20198;-72
2020/12/31 06:58:29;;;;;;;15.20;7.97;;;;;;;-0.88;100.00;95342.94;5001499;28;21037;-72
2020/12/31 07:00:55;;;;;;;19.63;8.60;;;;;;;-0.76;100.00;95342.72;5001618;28;20202;-71
2020/12/31 07:03:49;;;;;;;17.33;9.13;;;;;;;-0.81;100.00;95350.03;5000827;28;20232;-72
2020/12/31 07:06:34;;;;;;;19.00;8.57;;;;;;;-0.74;100.00;95345.97;5000509;28;20228;-71
2020/12/31 07:09:03;;;;;;;20.60;8.70;;;;;;;-0.73;100.00;95344.22;5000376;28;20225;-72
2020/12/31 07:11:31;;;;;;;17.67;7.80;;;;;;;-0.73;100.00;95341.63;5000070;28;20216;-72
2020/12/31 07:13:56;;;;;;;18.10;8.57;;;;;;;-0.73;100.00;95345.03;5001316;28;20227;-72
2020/12/31 07:16:41;;;;;;;16.83;8.30;;;;;;;-0.79;100.00;95336.97;5000301;28;20214;-72
2020/12/31 07:19:07;;;;;;;15.30;8.03;;;;;;;-0.79;100.00;95336.97;5000772;28;20221;-72
2020/12/31 07:21:37;;;;;;;14.70;7.63;;;;;;;-0.75;100.00;95339.19;5001356;28;20270;-72
2020/12/31 07:24:22;;;;;;;17.00;8.43;;;;;;;-0.65;100.00;95340.00;5000446;28;20230;-72
2020/12/31 07:26:49;;;;;;;16.87;8.07;;;;;;;-0.62;100.00;95342.34;4998590;28;20976;-72
2020/12/31 07:29:23;;;;;;;20.33;9.03;;;;;;;-0.62;100.00;95334.59;4999696;28;20230;-72
2020/12/31 07:31:50;;;;;;;20.43;9.93;;;;;;;-0.69;100.00;95338.63;5000089;28;20201;-72
2020/12/31 07:34:22;;;;;;;18.77;8.97;;;;;;;-0.90;100.00;95340.47;4999563;28;20223;-72
2020/12/31 07:37:12;;;;;;;20.03;9.03;;;;;;;-0.83;100.00;95331.22;4998117;28;20219;-71
2020/12/31 07:39:38;;;;;;;17.37;8.27;;;;;;;-0.78;100.00;95331.66;4985013;28;20210;-72
2020/12/31 07:42:15;;;;;;;18.40;9.17;;;;;;;-0.77;100.00;95335.91;4999491;28;20222;-72
2020/12/31 07:44:55;;;;;;;19.70;8.37;;;;;;;-0.78;100.00;95328.28;4999461;28;20210;-72
2020/12/31 07:47:23;;;;;;;17.97;8.57;;;;;;;-0.70;100.00;95337.03;4998348;28;21194;-72
2020/12/31 07:49:50;;;;;;;20.67;8.87;;;;;;;-0.67;100.00;95325.59;5000183;28;20905;-71
2020/12/31 07:52:17;;;;;;;21.53;9.97;;;;;;;-0.63;100.00;95328.56;4999289;28;20220;-72
2020/12/31 07:54:43;;;;;;;24.07;11.20;;;;;;;-0.57;100.00;95322.88;4999229;28;20205;-72
2020/12/31 07:57:10;;;;;;;33.63;15.63;;;;;;;-0.55;100.00;95325.34;4998650;28;20207;-72
2020/12/31 07:59:43;;;;;;;37.50;16.03;;;;;;;-0.56;100.00;95329.69;4999261;28;20242;-72
2020/12/31 08:02:10;;;;;;;28.27;12.23;;;;;;;-0.65;100.00;95321.09;4999092;28;21071;-72
2020/12/31 08:04:36;;;;;;;17.93;9.00;;;;;;;-0.64;100.00;95327.91;4999294;28;20191;-72
2020/12/31 08:07:14;;;;;;;18.87;9.30;;;;;;;-0.70;100.00;95321.50;4998643;28;20293;-71
2020/12/31 08:09:42;;;;;;;18.53;9.10;;;;;;;-0.68;100.00;95318.78;4999299;28;20248;-72
2020/12/31 08:12:10;;;;;;;15.80;8.50;;;;;;;-0.64;100.00;95314.97;4999036;28;20694;-71
2020/12/31 08:14:43;;;;;;;16.27;8.63;;;;;;;-0.66;100.00;95322.88;4997472;28;20210;-72
2020/12/31 08:17:09;;;;;;;25.07;9.33;;;;;;;-0.75;100.00;95318.50;4997881;28;20690;-71
2020/12/31 08:19:36;;;;;;;29.30;9.70;;;;;;;-0.63;100.00;95315.66;4998291;28;20237;-71
2020/12/31 08:22:09;;;;;;;38.63;9.57;;;;;;;-0.57;100.00;95311.72;4998446;28;21106;-72
2020/12/31 08:24:38;;;;;;;21.23;9.63;;;;;;;-0.48;100.00;95311.75;4998289;28;20209;-71
2020/12/31 08:27:05;;;;;;;17.90;9.23;;;;;;;-0.43;100.00;95317.34;4997774;28;20207;-71
2020/12/31 08:29:33;;;;;;;24.53;11.73;;;;;;;-0.28;100.00;95322.94;4998377;28;20207;-72
2020/12/31 08:32:04;;;;;;;19.53;9.70;;;;;;;-0.35;100.00;95332.19;4998676;28;20199;-71
2020/12/31 08:34:36;;;;;;;21.17;10.23;;;;;;;-0.26;100.00;95329.59;4998544;28;20215;-72
2020/12/31 08:37:02;;;;;;;21.37;10.43;;;;;;;-0.25;100.00;95325.28;4997881;28;21220;-72
2020/12/31 08:39:28;;;;;;;20.53;9.07;;;;;;;-0.18;100.00;95316.81;4998535;28;20208;-71
2020/12/31 08:41:57;;;;;;;18.30;8.63;;;;;;;-0.11;100.00;95320.50;4998339;28;20226;-72
2020/12/31 08:44:25;;;;;;;23.03;9.57;;;;;;;0.03;100.00;95307.97;4998294;28;20328;-72
2020/12/31 08:46:52;;;;;;;21.03;10.57;;;;;;;0.10;100.00;95311.66;4997634;28;20297;-72
2020/12/31 08:49:23;;;;;;;25.63;12.33;;;;;;;0.17;100.00;95310.13;4998285;28;20306;-72
2020/12/31 08:51:49;;;;;;;25.97;12.63;;;;;;;0.16;100.00;95303.31;4999363;28;20207;-71
2020/12/31 08:54:15;;;;;;;28.17;13.07;;;;;;;0.28;100.00;95307.41;4997644;28;20220;-71
2020/12/31 08:56:41;;;;;;;27.20;12.63;;;;;;;0.36;100.00;95304.13;4997844;28;20619;-72
2020/12/31 08:59:08;;;;;;;26.30;12.90;;;;;;;0.32;100.00;95303.59;4998421;28;20202;-71
2020/12/31 09:01:35;;;;;;;30.53;14.03;;;;;;;0.36;100.00;95299.75;4998788;28;20206;-72
2020/12/31 09:04:08;;;;;;;27.27;12.93;;;;;;;0.41;100.00;95296.75;4997383;28;20222;-72
2020/12/31 09:06:35;;;;;;;24.93;12.10;;;;;;;0.47;100.00;95302.22;4997609;28;20202;-72
2020/12/31 09:09:01;;;;;;;25.40;11.83;;;;;;;0.41;100.00;95300.16;4997582;28;20213;-72
2020/12/31 09:11:29;;;;;;;27.33;13.67;;;;;;;0.55;100.00;95299.72;4998077;28;20218;-72
2020/12/31 09:14:06;;;;;;;28.97;12.13;;;;;;;0.65;100.00;95295.34;4998165;28;20226;-72
2020/12/31 09:16:32;;;;;;;20.57;9.10;;;;;;;0.64;100.00;95299.69;4997500;28;21135;-72
2020/12/31 09:19:00;;;;;;;20.73;9.07;;;;;;;0.78;100.00;95295.84;4997946;28;20239;-72
2020/12/31 09:21:28;;;;;;;26.27;8.10;;;;;;;0.91;100.00;95301.53;4997754;28;20205;-72
2020/12/31 09:23:54;;;;;;;10.93;6.23;;;;;;;1.04;100.00;95304.63;4998126;28;20250;-72
2020/12/31 09:26:25;;;;;;;12.60;6.80;;;;;;;1.22;100.00;95306.31;4997117;28;20213;-72
2020/12/31 09:28:50;;;;;;;15.57;8.47;;;;;;;1.34;100.00;95300.00;4997897;28;20759;-72
2020/12/31 09:31:22;;;;;;;16.13;8.70;;;;;;;1.34;100.00;95295.59;4998076;28;20202;-72
2020/12/31 09:33:48;;;;;;;18.50;8.63;;;;;;;1.45;100.00;95289.41;4997892;28;20532;-72
2020/12/31 09:36:21;;;;;;;12.00;6.23;;;;;;;1.59;99.79;95287.16;4997003;28;20363;-72
2020/12/31 09:38:47;;;;;;;15.07;8.30;;;;;;;1.70;100.00;95284.31;4998044;28;20318;-72
2020/12/31 09:41:13;;;;;;;13.37;7.03;;;;;;;1.85;97.58;95283.66;4998522;28;20213;-71
2020/12/31 09:43:39;;;;;;;12.53;8.00;;;;;;;1.84;99.37;95279.41;4998037;28;20607;-72
2020/12/31 09:46:05;;;;;;;16.90;8.07;;;;;;;1.90;100.00;95278.03;4996960;28;20201;-72
2020/12/31 09:48:31;;;;;;;15.97;8.17;;;;;;;1.92;100.00;95270.91;4998457;28;20217;-72
2020/12/31 09:50:57;;;;;;;15.07;8.30;;;;;;;1.98;100.00;95271.13;4997617;28;20202;-72
2020/12/31 09:53:24;;;;;;;12.53;7.17;;;;;;;2.09;100.00;95262.31;4998446;28;20234;-72
2020/12/31 09:55:50;;;;;;;11.33;6.67;;;;;;;2.18;97.77;95266.59;4997221;28;20206;-72
2020/12/31 09:58:15;;;;;;;16.20;6.90;;;;;;;2.26;97.68;95264.88;4998314;28;20214;-72
2020/12/31 10:00:41;;;;;;;7.60;5.30;;;;;;;2.48;96.36;95265.22;4996508;28;20904;-72
2020/12/31 10:03:07;;;;;;;10.90;5.10;;;;;;;2.57;95.00;95266.06;4995189;28;20234;-72
2020/12/31 10:05:33;;;;;;;10.80;5.20;;;;;;;2.64;92.73;95265.31;4998404;28;20237;-72
2020/12/31 10:07:59;;;;;;;10.53;5.43;;;;;;;2.67;93.32;95265.03;4998354;28;20708;-72
2020/12/31 10:10:26;;;;;;;8.50;5.07;;;;;;;2.68;93.41;95253.63;4998873;28;20208;-72
2020/12/31 10:12:52;;;;;;;8.33;5.10;;;;;;;2.68;93.55;95253.63;4999625;28;20721;-72
2020/12/31 10:15:18;;;;;;;8.30;4.70;;;;;;;2.70;90.97;95249.09;5000152;28;20275;-72
2020/12/31 10:17:44;;;;;;;7.17;4.50;;;;;;;2.74;91.14;95245.22;5000845;28;20203;-72
2020/12/31 10:20:09;;;;;;;10.53;4.87;;;;;;;2.76;90.62;95238.09;5001791;28;20249;-72
2020/12/31 10:22:35;;;;;;;13.87;5.23;;;;;;;2.67;90.72;95239.00;5000389;28;20769;-73
2020/12/31 10:25:03;;;;;;;10.70;5.10;;;;;;;2.78;91.71;95233.53;5000798;28;20203;-73
2020/12/31 10:27:29;;;;;;;15.33;6.73;;;;;;;2.82;90.84;95245.25;5000573;28;20298;-72
2020/12/31 10:29:56;;;;;;;12.50;5.70;;;;;;;2.85;88.97;95237.16;5001177;28;20198;-72
2020/12/31 10:32:22;;;;;;;9.53;4.93;;;;;;;2.98;90.50;95232.34;5000302;28;20708;-73
2020/12/31 10:34:48;;;;;;;8.83;4.83;;;;;;;3.07;90.32;95224.41;5000802;28;20237;-73
2020/12/31 10:37:14;;;;;;;10.60;5.20;;;;;;;3.06;89.73;95225.38;5000393;28;20206;-72
2020/12/31 10:39:40;;;;;;;10.67;5.43;;;;;;;3.09;90.35;95219.03;5000534;28;20602;-72
2020/12/31 10:42:06;;;;;;;9.03;5.07;;;;;;;3.16;89.56;95223.47;5000351;28;20369;-72
2020/12/31 10:44:33;;;;;;;8.60;4.70;;;;;;;3.23;88.16;95211.47;5000965;28;20309;-73
2020/12/31 10:46:59;;;;;;;8.57;4.47;;;;;;;3.31;86.22;95201.06;4999587;28;20233;-72
2020/12/31 10:49:25;;;;;;;8.27;4.67;;;;;;;3.39;87.61;95200.28;5000253;28;20654;-73
2020/12/31 10:51:52;;;;;;;9.10;5.00;;;;;;;3.49;87.20;95195.72;5000528;28;20539;-73
2020/12/31 10:54:18;;;;;;;9.07;5.10;;;;;;;3.36;87.63;95195.38;5000252;28;20864;-73
2020/12/31 10:56:43;;;;;;;9.60;5.33;;;;;;;3.39;87.52;95190.69;4999327;28;20207;-72
2020/12/31 10:59:09;;;;;;;13.57;6.07;;;;;;;3.28;87.77;95190.97;5001985;28;20209;-72
2020/12/31 11:01:36;;;;;;;11.03;6.27;;;;;;;3.12;87.92;95184.91;5001748;28;20739;-72
2020/12/31 11:04:02;;;;;;;10.13;5.20;;;;;;;3.14;88.43;95185.56;5000976;28;20226;-72
2020/12/31 11:06:30;;;;;;;8.33;4.93;;;;;;;3.12;88.37;95175.31;5001260;28;20211;-72
2020/12/31 11:08:57;;;;;;;9.47;5.30;;;;;;;3.18;88.77;95172.09;5001197;28;20211;-72
2020/12/31 11:11:25;;;;;;;8.40;4.87;;;;;;;3.25;86.60;95173.06;5001094;28;20203;-72
2020/12/31 11:13:52;;;;;;;7.47;4.50;;;;;;;3.25;87.34;95167.06;5001625;28;20226;-72
2020/12/31 11:16:18;;;;;;;7.63;4.77;;;;;;;3.36;87.55;95170.19;5000812;28;20218;-72
2020/12/31 11:18:45;;;;;;;9.57;4.87;;;;;;;3.35;86.31;95165.94;5001271;28;20252;-72
2020/12/31 11:21:13;;;;;;;14.40;6.30;;;;;;;3.31;85.66;95161.19;5001040;28;20206;-73
2020/12/31 11:23:39;;;;;;;11.53;5.23;;;;;;;3.16;85.55;95158.41;5002084;28;20280;-72
2020/12/31 11:26:10;;;;;;;7.83;4.60;;;;;;;3.37;84.45;95158.75;5000625;28;20206;-72
2020/12/31 11:28:35;;;;;;;8.50;5.03;;;;;;;3.45;83.09;95152.75;5001192;28;20793;-72